Time;durP1;ratioP1;P1;durP2;ratioP2;P2;SDS_P1;SDS_P2;PMS_P1;PMS_P2;Temp;Humidity;BMP_temperature;BMP_pressure;BME280_temperature;BME280_humidity;BME280_pressure;Samples;Min_cycle;Max_cycle;Signal;HPM_P1;HPM_P2
2023/12/09 00:01:20;;;;;;;;;;;6.80;99.90;;;;;;5040330;28;19970;-93
2023/12/09 00:03:45;;;;;;;;;;;6.80;99.90;;;;;;5041845;28;19920;-92
2023/12/09 00:06:11;;;;;;;;;;;6.90;99.90;;;;;;5024936;28;19928;-93
2023/12/09 00:08:37;;;;;;;;;;;6.80;99.90;;;;;;5041751;28;19921;-94
2023/12/09 00:11:05;;;;;;;;;;;6.90;99.90;;;;;;5023631;28;19943;-93
2023/12/09 00:13:31;;;;;;;;;;;6.90;99.90;;;;;;5026232;28;20003;-93
2023/12/09 00:15:57;;;;;;;;;;;7.00;99.90;;;;;;5041473;28;20035;-94
2023/12/09 00:18:23;;;;;;;;;;;7.00;99.90;;;;;;5041969;28;20351;-92
2023/12/09 00:20:49;;;;;;;;;;;7.00;99.90;;;;;;5024523;28;19964;-93
2023/12/09 00:23:15;;;;;;;;;;;7.00;99.90;;;;;;5021798;28;19975;-92
2023/12/09 00:25:41;;;;;;;;;;;7.00;99.90;;;;;;5035437;28;20414;-94
2023/12/09 00:28:07;;;;;;;;;;;7.00;99.90;;;;;;5040141;28;19921;-92
2023/12/09 00:30:32;;;;;;;;;;;7.00;99.90;;;;;;5055759;28;20015;-96
2023/12/09 00:32:58;;;;;;;;;;;7.20;99.90;;;;;;5028257;28;20589;-93
2023/12/09 00:35:23;;;;;;;;;;;7.00;99.90;;;;;;5024104;28;20537;-94
2023/12/09 00:37:50;;;;;;;;;;;7.00;99.90;;;;;;5040943;28;19920;-94
2023/12/09 00:40:15;;;;;;;;;;;7.00;99.90;;;;;;5040608;28;19929;-93
2023/12/09 00:42:41;;;;;;;;;;;7.00;99.90;;;;;;5040436;28;20057;-93
2023/12/09 00:45:07;;;;;;;;;;;6.90;99.90;;;;;;5037141;28;20528;-91
2023/12/09 00:47:32;;;;;;;;;;;7.00;99.90;;;;;;5040437;28;19926;-92
2023/12/09 00:49:58;;;;;;;;;;;7.00;99.90;;;;;;5041912;28;19924;-93
2023/12/09 00:52:23;;;;;;;;;;;7.10;99.90;;;;;;5041472;28;20007;-93
2023/12/09 00:54:49;;;;;;;;;;;7.00;99.90;;;;;;5040178;28;20379;-93
2023/12/09 00:57:15;;;;;;;;;;;7.00;99.90;;;;;;5040617;28;19924;-93
2023/12/09 00:59:40;;;;;;;;;;;7.00;99.90;;;;;;5040299;28;19925;-94
2023/12/09 01:02:06;;;;;;;;;;;7.00;99.90;;;;;;5024435;28;20327;-94
2023/12/09 01:04:31;;;;;;;;;;;7.00;99.90;;;;;;5036095;28;19920;-93
2023/12/09 01:06:57;;;;;;;;;;;7.00;99.90;;;;;;5023005;28;19920;-93
2023/12/09 01:09:23;;;;;;;;;;;7.00;99.90;;;;;;5041617;28;19974;-93
2023/12/09 01:11:48;;;;;;;;;;;7.10;99.90;;;;;;5037082;28;19928;-94
2023/12/09 01:14:14;;;;;;;;;;;7.10;99.90;;;;;;5040652;28;20562;-93
2023/12/09 01:16:40;;;;;;;;;;;7.10;99.90;;;;;;5041845;28;19931;-93
2023/12/09 01:19:06;;;;;;;;;;;7.10;99.90;;;;;;5040143;28;19960;-92
2023/12/09 01:21:32;;;;;;;;;;;7.00;99.90;;;;;;5023315;28;19967;-92
2023/12/09 01:23:57;;;;;;;;;;;7.20;99.90;;;;;;5037468;28;19943;-93
2023/12/09 01:26:23;;;;;;;;;;;7.10;99.90;;;;;;5037092;28;19925;-93
2023/12/09 01:28:49;;;;;;;;;;;7.10;99.90;;;;;;5041025;28;20295;-92
2023/12/09 01:31:15;;;;;;;;;;;7.20;99.90;;;;;;5024074;28;19930;-93
2023/12/09 01:33:41;;;;;;;;;;;6.40;99.90;;;;;;5025706;28;19959;-94
2023/12/09 01:36:07;;;;;;;;;;;7.10;99.90;;;;;;5018980;28;19921;-93
2023/12/09 01:38:32;;;;;;;;;;;6.30;99.90;;;;;;5017338;28;19921;-92
2023/12/09 01:40:58;;;;;;;;;;;7.10;99.90;;;;;;5024443;28;19982;-93
2023/12/09 01:43:23;;;;;;;;;;;7.10;99.90;;;;;;5000765;28;19967;-93
2023/12/09 01:45:53;;;;;;;;;;;7.20;99.90;;;;;;5011985;28;19970;-92
2023/12/09 01:48:19;;;;;;;;;;;7.10;99.90;;;;;;5026259;28;19921;-94
2023/12/09 01:50:45;;;;;;;;;;;7.20;99.90;;;;;;5035900;28;19946;-93
2023/12/09 01:53:11;;;;;;;;;;;7.10;99.90;;;;;;5022336;28;19921;-94
2023/12/09 01:55:37;;;;;;;;;;;7.20;99.90;;;;;;5020262;28;19921;-93
2023/12/09 01:58:03;;;;;;;;;;;7.10;99.90;;;;;;5004304;28;20019;-93
2023/12/09 02:00:29;;;;;;;;;;;7.20;99.90;;;;;;5035352;28;20303;-91
2023/12/09 02:02:55;;;;;;;;;;;7.10;99.90;;;;;;5018613;28;19928;-94
2023/12/09 02:05:21;;;;;;;;;;;7.30;99.90;;;;;;5036230;28;19925;-93
2023/12/09 02:07:47;;;;;;;;;;;7.20;99.90;;;;;;5016245;28;19921;-94
2023/12/09 02:10:13;;;;;;;;;;;6.00;99.90;;;;;;5003059;28;19925;-93
2023/12/09 02:12:48;;;;;;;;;;;7.10;99.90;;;;;;5002697;28;19963;-93
2023/12/09 02:15:18;;;;;;;;;;;7.10;99.90;;;;;;5046026;28;19975;-93
2023/12/09 02:17:49;;;;;;;;;;;7.20;99.90;;;;;;5019579;28;20013;-94
2023/12/09 02:20:15;;;;;;;;;;;7.20;99.90;;;;;;5017583;28;19951;-93
2023/12/09 02:22:41;;;;;;;;;;;7.20;99.90;;;;;;5002079;28;19925;-93
2023/12/09 02:25:07;;;;;;;;;;;7.30;99.90;;;;;;5018623;28;20008;-92
2023/12/09 02:27:35;;;;;;;;;;;7.20;99.90;;;;;;5005043;28;20449;-94
2023/12/09 02:30:19;;;;;;;;;;;7.20;99.90;;;;;;5022150;28;20041;-94
2023/12/09 02:32:46;;;;;;;;;;;7.80;99.90;;;;;;5029185;28;19969;-92
2023/12/09 02:35:12;;;;;;;;;;;7.30;99.90;;;;;;5019837;28;19964;-92
2023/12/09 02:37:39;;;;;;;;;;;7.20;99.90;;;;;;5020228;28;19955;-92
2023/12/09 02:40:09;;;;;;;;;;;7.20;99.90;;;;;;5016041;28;20292;-93
2023/12/09 02:42:35;;;;;;;;;;;7.20;99.90;;;;;;4994312;28;19929;-93
2023/12/09 02:45:01;;;;;;;;;;;7.30;99.90;;;;;;5020189;28;20479;-92
2023/12/09 02:47:27;;;;;;;;;;;7.20;99.90;;;;;;5024514;28;19928;-93
2023/12/09 02:49:54;;;;;;;;;;;7.10;99.90;;;;;;5034997;28;20400;-93
2023/12/09 02:52:19;;;;;;;;;;;7.20;99.90;;;;;;5003204;28;19936;-93
2023/12/09 02:54:45;;;;;;;;;;;7.20;99.90;;;;;;5003239;28;20383;-92
2023/12/09 02:57:10;;;;;;;;;;;7.10;99.90;;;;;;5027670;28;19970;-93
2023/12/09 02:59:36;;;;;;;;;;;7.20;99.90;;;;;;5028008;28;20011;-95
2023/12/09 03:02:02;;;;;;;;;;;7.20;99.90;;;;;;5045228;28;19951;-93
2023/12/09 03:04:28;;;;;;;;;;;7.20;99.90;;;;;;5035540;28;19929;-93
2023/12/09 03:06:53;;;;;;;;;;;7.10;99.90;;;;;;5020795;28;19975;-93
2023/12/09 03:09:19;;;;;;;;;;;7.10;99.90;;;;;;5018890;28;20001;-94
2023/12/09 03:11:44;;;;;;;;;;;7.20;99.90;;;;;;5016037;28;19928;-93
2023/12/09 03:14:10;;;;;;;;;;;7.20;99.90;;;;;;5021566;28;19928;-94
2023/12/09 03:16:36;;;;;;;;;;;7.20;99.90;;;;;;5017762;28;20065;-91
2023/12/09 03:19:02;;;;;;;;;;;7.60;99.90;;;;;;5029873;28;19921;-92
2023/12/09 03:21:28;;;;;;;;;;;7.30;99.90;;;;;;5005208;28;19936;-93
2023/12/09 03:23:53;;;;;;;;;;;7.20;99.90;;;;;;5038222;28;19924;-93
2023/12/09 03:26:19;;;;;;;;;;;7.40;99.90;;;;;;5002738;28;19947;-92
2023/12/09 03:28:45;;;;;;;;;;;7.30;99.90;;;;;;5024814;28;19928;-92
2023/12/09 03:31:11;;;;;;;;;;;7.20;99.90;;;;;;5043165;28;19924;-91
2023/12/09 03:33:37;;;;;;;;;;;8.00;99.90;;;;;;5041495;28;19974;-93
2023/12/09 03:36:03;;;;;;;;;;;7.70;99.90;;;;;;5041243;28;20379;-91
2023/12/09 03:38:29;;;;;;;;;;;7.20;99.90;;;;;;5025843;28;19928;-95
2023/12/09 03:40:55;;;;;;;;;;;7.20;99.90;;;;;;5024899;28;19925;-92
2023/12/09 03:43:20;;;;;;;;;;;7.30;99.90;;;;;;5051876;28;19921;-91
2023/12/09 03:45:46;;;;;;;;;;;7.20;99.90;;;;;;5023605;28;20364;-92
2023/12/09 03:48:12;;;;;;;;;;;7.10;99.90;;;;;;5042351;28;19920;-93
2023/12/09 03:50:37;;;;;;;;;;;7.10;99.90;;;;;;5024598;28;20335;-92
2023/12/09 03:53:03;;;;;;;;;;;7.20;99.90;;;;;;5016913;28;19931;-91
2023/12/09 03:55:29;;;;;;;;;;;7.10;99.90;;;;;;5041838;28;19983;-92
2023/12/09 03:57:55;;;;;;;;;;;7.10;99.90;;;;;;5025987;28;20299;-92
2023/12/09 04:00:22;;;;;;;;;;;7.10;99.90;;;;;;5041096;28;19921;-95
2023/12/09 04:02:48;;;;;;;;;;;7.10;99.90;;;;;;5021462;28;19931;-93
2023/12/09 04:05:14;;;;;;;;;;;7.10;99.90;;;;;;5024142;28;20364;-91
2023/12/09 04:07:39;;;;;;;;;;;7.00;99.90;;;;;;5025822;28;19946;-94
2023/12/09 04:10:05;;;;;;;;;;;7.60;99.90;;;;;;5022640;28;19928;-94
2023/12/09 04:12:31;;;;;;;;;;;7.00;99.90;;;;;;5025469;28;19944;-93
2023/12/09 04:14:57;;;;;;;;;;;7.30;99.90;;;;;;5025544;28;19932;-96
2023/12/09 04:17:22;;;;;;;;;;;7.60;99.90;;;;;;5041347;28;20487;-94
2023/12/09 04:19:48;;;;;;;;;;;7.00;99.90;;;;;;5036108;28;19924;-93
2023/12/09 04:22:14;;;;;;;;;;;7.50;99.90;;;;;;5033852;28;19932;-92
2023/12/09 04:24:42;;;;;;;;;;;7.00;99.90;;;;;;5040148;28;19974;-92
2023/12/09 04:27:08;;;;;;;;;;;7.10;99.90;;;;;;5058323;28;19947;-93
2023/12/09 04:29:34;;;;;;;;;;;6.30;99.90;;;;;;5031465;28;19925;-91
2023/12/09 04:32:00;;;;;;;;;;;7.10;99.90;;;;;;5011871;28;19958;-92
2023/12/09 04:34:25;;;;;;;;;;;6.90;99.90;;;;;;5034489;28;19925;-92
2023/12/09 04:36:51;;;;;;;;;;;6.80;99.90;;;;;;5027161;28;19924;-95
2023/12/09 04:39:16;;;;;;;;;;;7.10;99.90;;;;;;5030022;28;19921;-94
2023/12/09 04:41:42;;;;;;;;;;;7.20;99.90;;;;;;5037102;28;19935;-91
2023/12/09 04:44:08;;;;;;;;;;;7.70;99.90;;;;;;5006053;28;19979;-92
2023/12/09 04:46:34;;;;;;;;;;;7.00;99.90;;;;;;5030388;28;19928;-94
2023/12/09 04:49:00;;;;;;;;;;;7.10;99.90;;;;;;5022128;28;19977;-93
2023/12/09 04:51:25;;;;;;;;;;;7.00;99.90;;;;;;5035472;28;19921;-90
2023/12/09 04:53:52;;;;;;;;;;;7.20;99.90;;;;;;5016337;28;20002;-94
2023/12/09 04:56:18;;;;;;;;;;;7.10;99.90;;;;;;5009773;28;19995;-91
2023/12/09 04:58:44;;;;;;;;;;;7.10;99.90;;;;;;5022900;28;19924;-93
2023/12/09 05:01:09;;;;;;;;;;;7.10;99.90;;;;;;5012304;28;19979;-93
2023/12/09 05:03:35;;;;;;;;;;;7.10;99.90;;;;;;5011907;28;20070;-93
2023/12/09 05:06:00;;;;;;;;;;;7.10;99.90;;;;;;5032108;28;20205;-93
2023/12/09 05:08:27;;;;;;;;;;;7.00;99.90;;;;;;5002137;28;20280;-93
2023/12/09 05:10:53;;;;;;;;;;;7.10;99.90;;;;;;5026473;28;19920;-93
2023/12/09 05:13:18;;;;;;;;;;;7.00;99.90;;;;;;5024083;28;20382;-92
2023/12/09 05:15:44;;;;;;;;;;;7.10;99.90;;;;;;5023692;28;19967;-94
2023/12/09 05:18:10;;;;;;;;;;;7.00;99.90;;;;;;5027989;28;19927;-94
2023/12/09 05:20:35;;;;;;;;;;;7.00;99.90;;;;;;5017829;28;19928;-92
2023/12/09 05:23:01;;;;;;;;;;;6.50;99.90;;;;;;5013182;28;20387;-93
2023/12/09 05:25:27;;;;;;;;;;;7.00;99.90;;;;;;5020151;28;19920;-92
2023/12/09 05:27:53;;;;;;;;;;;7.10;99.90;;;;;;5019825;28;19928;-93
2023/12/09 05:30:19;;;;;;;;;;;7.10;99.90;;;;;;5011362;28;19929;-94
2023/12/09 05:32:44;;;;;;;;;;;7.10;99.90;;;;;;4993057;28;20023;-94
2023/12/09 05:35:10;;;;;;;;;;;7.00;99.90;;;;;;5029851;28;20287;-95
2023/12/09 05:37:36;;;;;;;;;;;7.00;99.90;;;;;;5018958;28;19921;-92
2023/12/09 05:40:02;;;;;;;;;;;7.30;99.90;;;;;;5003650;28;19927;-92
2023/12/09 05:42:28;;;;;;;;;;;7.50;99.90;;;;;;5025208;28;19931;-94
2023/12/09 05:44:53;;;;;;;;;;;7.00;99.90;;;;;;5027416;28;20007;-92
2023/12/09 05:47:19;;;;;;;;;;;7.10;99.90;;;;;;5008313;28;19928;-92
2023/12/09 05:49:45;;;;;;;;;;;7.00;99.90;;;;;;5009605;28;20473;-92
2023/12/09 05:52:10;;;;;;;;;;;7.10;99.90;;;;;;5024946;28;19921;-93
2023/12/09 05:54:36;;;;;;;;;;;7.10;99.90;;;;;;5021331;28;19967;-92
2023/12/09 05:57:02;;;;;;;;;;;7.50;99.90;;;;;;5026555;28;19942;-93
2023/12/09 05:59:28;;;;;;;;;;;7.10;99.90;;;;;;5021733;28;19975;-93
2023/12/09 06:01:54;;;;;;;;;;;7.40;99.90;;;;;;5026227;28;20308;-92
2023/12/09 06:04:20;;;;;;;;;;;7.10;99.90;;;;;;5017431;28;20390;-93
2023/12/09 06:06:45;;;;;;;;;;;7.00;99.90;;;;;;5018153;28;20007;-94
2023/12/09 06:09:11;;;;;;;;;;;7.10;99.90;;;;;;4999287;28;19936;-94
2023/12/09 06:11:37;;;;;;;;;;;7.30;99.90;;;;;;5021090;28;19969;-95
2023/12/09 06:14:02;;;;;;;;;;;7.10;99.90;;;;;;5028702;28;19932;-93
2023/12/09 06:16:28;;;;;;;;;;;7.10;99.90;;;;;;5018604;28;19928;-94
2023/12/09 06:18:54;;;;;;;;;;;6.10;99.90;;;;;;5020566;28;19927;-94
2023/12/09 06:21:23;;;;;;;;;;;7.10;99.90;;;;;;5018391;28;19928;-93
2023/12/09 06:23:49;;;;;;;;;;;7.10;99.90;;;;;;5032701;28;19978;-95
2023/12/09 06:26:18;;;;;;;;;;;7.10;99.90;;;;;;5019747;28;19959;-95
2023/12/09 06:28:44;;;;;;;;;;;7.10;99.90;;;;;;5026916;28;20260;-92
2023/12/09 06:31:10;;;;;;;;;;;7.20;99.90;;;;;;5072687;28;19928;-93
2023/12/09 06:33:36;;;;;;;;;;;7.10;99.90;;;;;;5036757;28;19921;-92
2023/12/09 06:36:02;;;;;;;;;;;7.10;99.90;;;;;;5056140;28;19970;-93
2023/12/09 06:38:29;;;;;;;;;;;7.10;99.90;;;;;;5047727;28;19924;-90
2023/12/09 06:40:55;;;;;;;;;;;7.10;99.90;;;;;;5036437;28;19947;-93
2023/12/09 06:43:20;;;;;;;;;;;7.10;99.90;;;;;;5037541;28;19920;-91
2023/12/09 06:45:46;;;;;;;;;;;7.20;99.90;;;;;;5055692;28;19937;-95
2023/12/09 06:48:12;;;;;;;;;;;7.10;99.90;;;;;;5072918;28;19920;-94
2023/12/09 06:50:38;;;;;;;;;;;7.20;99.90;;;;;;5072185;28;19927;-94
2023/12/09 06:53:05;;;;;;;;;;;7.10;99.90;;;;;;5034597;28;19928;-96
2023/12/09 06:55:30;;;;;;;;;;;7.10;99.90;;;;;;5047258;28;19932;-93
2023/12/09 06:57:56;;;;;;;;;;;7.20;99.90;;;;;;5057453;28;20008;-93
2023/12/09 07:00:25;;;;;;;;;;;7.00;99.90;;;;;;5052916;28;19909;-90
2023/12/09 07:02:50;;;;;;;;;;;7.00;99.90;;;;;;5054963;28;19925;-92
2023/12/09 07:05:16;;;;;;;;;;;7.00;99.90;;;;;;5055788;28;19927;-91
2023/12/09 07:07:45;;;;;;;;;;;6.90;99.90;;;;;;5055241;28;20422;-92
2023/12/09 07:10:11;;;;;;;;;;;7.20;99.90;;;;;;5067148;28;19930;-94
2023/12/09 07:12:37;;;;;;;;;;;6.90;99.90;;;;;;5053989;28;19921;-93
2023/12/09 07:15:05;;;;;;;;;;;6.10;99.90;;;;;;5047000;28;19967;-93
2023/12/09 07:17:31;;;;;;;;;;;6.90;99.90;;;;;;5041280;28;20329;-95
2023/12/09 07:19:59;;;;;;;;;;;6.90;99.90;;;;;;5029406;28;19930;-95
2023/12/09 07:22:25;;;;;;;;;;;6.90;99.90;;;;;;5038667;28;19976;-93
2023/12/09 07:24:51;;;;;;;;;;;7.30;99.90;;;;;;5053097;28;19920;-92
2023/12/09 07:27:17;;;;;;;;;;;6.90;99.90;;;;;;5041759;28;19928;-92
2023/12/09 07:29:43;;;;;;;;;;;6.90;99.90;;;;;;5071846;28;19928;-92
2023/12/09 07:32:09;;;;;;;;;;;6.80;99.90;;;;;;5039133;28;19920;-92
2023/12/09 07:34:35;;;;;;;;;;;7.30;99.90;;;;;;5036013;28;20008;-89
2023/12/09 07:37:01;;;;;;;;;;;6.80;99.90;;;;;;5055913;28;20008;-93
2023/12/09 07:39:27;;;;;;;;;;;6.90;99.90;;;;;;5036486;28;19936;-94
2023/12/09 07:41:52;;;;;;;;;;;6.90;99.90;;;;;;5051125;28;19925;-94
2023/12/09 07:44:19;;;;;;;;;;;6.80;99.90;;;;;;5051585;28;19930;-92
2023/12/09 07:46:45;;;;;;;;;;;6.80;99.90;;;;;;5042459;28;19921;-93
2023/12/09 07:49:10;;;;;;;;;;;6.70;99.90;;;;;;5074369;28;19921;-95
2023/12/09 07:51:36;;;;;;;;;;;7.20;99.90;;;;;;5058053;28;19921;-93
2023/12/09 07:54:02;;;;;;;;;;;6.80;99.90;;;;;;5050207;28;19920;-94
2023/12/09 07:56:30;;;;;;;;;;;6.70;99.90;;;;;;5056302;28;19927;-93
2023/12/09 07:58:55;;;;;;;;;;;6.70;99.90;;;;;;5035982;28;19932;-92
2023/12/09 08:01:21;;;;;;;;;;;6.80;99.90;;;;;;5056734;28;19925;-94
2023/12/09 08:03:46;;;;;;;;;;;6.70;99.90;;;;;;5047056;28;19927;-94
2023/12/09 08:06:12;;;;;;;;;;;6.70;99.90;;;;;;5048565;28;20299;-92
2023/12/09 08:08:38;;;;;;;;;;;8.10;99.90;;;;;;5057149;28;19925;-92
2023/12/09 08:11:04;;;;;;;;;;;6.70;99.90;;;;;;5073136;28;19964;-93
2023/12/09 08:13:30;;;;;;;;;;;6.70;99.90;;;;;;5066294;28;19970;-95
2023/12/09 08:15:55;;;;;;;;;;;6.70;99.90;;;;;;5045535;28;20366;-93
2023/12/09 08:18:21;;;;;;;;;;;6.70;99.90;;;;;;5050462;28;19990;-93
2023/12/09 08:20:47;;;;;;;;;;;5.40;99.90;;;;;;5051975;28;19928;-93
2023/12/09 08:23:12;;;;;;;;;;;6.70;99.90;;;;;;5049020;28;20311;-89
2023/12/09 08:25:39;;;;;;;;;;;6.70;99.90;;;;;;5052575;28;19926;-89
2023/12/09 08:28:07;;;;;;;;;;;6.70;99.90;;;;;;5051793;28;20265;-95
2023/12/09 08:30:33;;;;;;;;;;;6.70;99.90;;;;;;5069704;28;19932;-88
2023/12/09 08:32:58;;;;;;;;;;;6.70;99.90;;;;;;5024380;28;19988;-90
2023/12/09 08:35:24;;;;;;;;;;;6.70;99.90;;;;;;5038679;28;20232;-92
2023/12/09 08:37:50;;;;;;;;;;;6.70;99.90;;;;;;5039811;28;19959;-92
2023/12/09 08:40:15;;;;;;;;;;;6.70;99.90;;;;;;5037473;28;19925;-89
2023/12/09 08:42:42;;;;;;;;;;;6.80;99.90;;;;;;5037430;28;19932;-93
2023/12/09 08:45:09;;;;;;;;;;;6.70;99.90;;;;;;5072026;28;19920;-88
2023/12/09 08:47:34;;;;;;;;;;;6.80;99.90;;;;;;5038404;28;19920;-87
2023/12/09 08:50:00;;;;;;;;;;;6.70;99.90;;;;;;5069006;28;19928;-86
2023/12/09 08:52:26;;;;;;;;;;;6.70;99.90;;;;;;5053904;28;20276;-88
2023/12/09 08:54:51;;;;;;;;;;;6.70;99.90;;;;;;5066465;28;19970;-87
2023/12/09 08:57:17;;;;;;;;;;;6.70;99.90;;;;;;5053104;28;20353;-85
2023/12/09 08:59:43;;;;;;;;;;;6.70;99.90;;;;;;5049783;28;19932;-86
2023/12/09 09:02:08;;;;;;;;;;;6.80;99.90;;;;;;5045490;28;20342;-86
2023/12/09 09:04:34;;;;;;;;;;;6.80;99.90;;;;;;5048346;28;19924;-91
2023/12/09 09:06:59;;;;;;;;;;;6.80;99.90;;;;;;5053139;28;19920;-91
2023/12/09 09:09:25;;;;;;;;;;;6.80;99.90;;;;;;5049164;28;20379;-90
2023/12/09 09:11:51;;;;;;;;;;;6.80;99.90;;;;;;5054288;28;19921;-88
2023/12/09 09:14:16;;;;;;;;;;;6.80;99.90;;;;;;5048585;28;20007;-89
2023/12/09 09:16:42;;;;;;;;;;;6.80;99.90;;;;;;5047764;28;19924;-87
2023/12/09 09:19:08;;;;;;;;;;;6.80;99.90;;;;;;5054508;28;19924;-93
2023/12/09 09:21:33;;;;;;;;;;;6.80;99.90;;;;;;5052703;28;20306;-89
2023/12/09 09:23:59;;;;;;;;;;;6.80;99.90;;;;;;5037681;28;20425;-91
2023/12/09 09:26:25;;;;;;;;;;;6.80;99.90;;;;;;5049714;28;19924;-92
2023/12/09 09:28:50;;;;;;;;;;;6.90;99.90;;;;;;5068549;28;19932;-90
2023/12/09 09:31:16;;;;;;;;;;;6.80;99.90;;;;;;5051002;28;20367;-91
2023/12/09 09:33:42;;;;;;;;;;;7.20;99.90;;;;;;5018053;28;20265;-88
2023/12/09 09:36:08;;;;;;;;;;;6.80;99.90;;;;;;5042471;28;19925;-88
2023/12/09 09:38:34;;;;;;;;;;;6.90;99.90;;;;;;5053181;28;19924;-95
2023/12/09 09:41:06;;;;;;;;;;;6.90;99.90;;;;;;5049828;28;19920;-90
2023/12/09 09:43:36;;;;;;;;;;;6.90;99.90;;;;;;5052826;28;20241;-89
2023/12/09 09:46:03;;;;;;;;;;;6.90;99.90;;;;;;5051588;28;19974;-89
2023/12/09 09:48:29;;;;;;;;;;;6.90;99.90;;;;;;5035057;28;19931;-85
2023/12/09 09:50:56;;;;;;;;;;;6.90;99.90;;;;;;5062623;28;19925;-89
2023/12/09 09:53:31;;;;;;;;;;;6.90;99.90;;;;;;5046309;28;19920;-91
2023/12/09 09:55:57;;;;;;;;;;;7.00;99.90;;;;;;5049627;28;19967;-87
2023/12/09 09:58:22;;;;;;;;;;;7.00;99.90;;;;;;5029062;28;19942;-88
2023/12/09 10:00:48;;;;;;;;;;;7.00;99.90;;;;;;5035143;28;20011;-89
2023/12/09 10:03:14;;;;;;;;;;;7.10;99.90;;;;;;5063505;28;19940;-89
2023/12/09 10:05:39;;;;;;;;;;;7.00;99.90;;;;;;5051101;28;19921;-88
2023/12/09 10:08:05;;;;;;;;;;;7.00;99.90;;;;;;5033888;28;19924;-89
2023/12/09 10:10:33;;;;;;;;;;;7.00;99.90;;;;;;5031742;28;19927;-88
2023/12/09 10:12:59;;;;;;;;;;;7.00;99.90;;;;;;5047120;28;19924;-90
2023/12/09 10:15:25;;;;;;;;;;;7.00;99.90;;;;;;5051393;28;20323;-89
2023/12/09 10:17:50;;;;;;;;;;;7.00;99.90;;;;;;5052212;28;19934;-88
2023/12/09 10:20:16;;;;;;;;;;;7.00;99.90;;;;;;5051848;28;20004;-91
2023/12/09 10:22:41;;;;;;;;;;;7.00;99.90;;;;;;5044613;28;19931;-92
2023/12/09 10:25:07;;;;;;;;;;;7.10;99.90;;;;;;5032989;28;20383;-86
2023/12/09 10:27:33;;;;;;;;;;;7.00;99.90;;;;;;5063162;28;20013;-87
2023/12/09 10:29:59;;;;;;;;;;;7.40;99.90;;;;;;5032923;28;19928;-86
2023/12/09 10:32:25;;;;;;;;;;;7.10;99.90;;;;;;5047334;28;19921;-86
2023/12/09 10:34:51;;;;;;;;;;;7.10;99.90;;;;;;5062552;28;19928;-89
2023/12/09 10:37:17;;;;;;;;;;;;;;;;;;5033946;28;20022;-85
2023/12/09 10:39:43;;;;;;;;;;;7.10;99.90;;;;;;5050273;28;20402;-89
2023/12/09 10:42:09;;;;;;;;;;;7.20;99.90;;;;;;5065707;28;20050;-88
2023/12/09 10:44:35;;;;;;;;;;;7.20;99.90;;;;;;5062580;28;19974;-87
2023/12/09 10:47:00;;;;;;;;;;;7.20;99.90;;;;;;5039718;28;19975;-89
2023/12/09 10:49:26;;;;;;;;;;;7.20;99.90;;;;;;5047664;28;19925;-92
2023/12/09 10:51:54;;;;;;;;;;;7.30;99.90;;;;;;5045532;28;20021;-86
2023/12/09 10:54:20;;;;;;;;;;;7.30;99.90;;;;;;5031129;28;19924;-87
2023/12/09 10:56:46;;;;;;;;;;;7.30;99.90;;;;;;5048394;28;20062;-88
2023/12/09 10:59:13;;;;;;;;;;;7.40;99.90;;;;;;5030774;28;19973;-88
2023/12/09 11:01:39;;;;;;;;;;;7.40;99.90;;;;;;5079857;28;19932;-92
2023/12/09 11:04:05;;;;;;;;;;;7.40;99.90;;;;;;5061523;28;20001;-87
2023/12/09 11:06:32;;;;;;;;;;;7.50;99.90;;;;;;5028446;28;21235;-88
2023/12/09 11:08:57;;;;;;;;;;;7.50;99.90;;;;;;5044864;28;19928;-85
2023/12/09 11:11:23;;;;;;;;;;;7.50;99.90;;;;;;5044450;28;20499;-86
2023/12/09 11:13:49;;;;;;;;;;;7.50;99.90;;;;;;5044786;28;19924;-86
2023/12/09 11:16:15;;;;;;;;;;;7.50;99.90;;;;;;5030053;28;19965;-88
2023/12/09 11:18:47;;;;;;;;;;;7.50;99.90;;;;;;5066401;28;20101;-87
2023/12/09 11:21:14;;;;;;;;;;;7.50;99.90;;;;;;5047377;28;19931;-88
2023/12/09 11:23:42;;;;;;;;;;;7.50;99.90;;;;;;5065679;28;19947;-87
2023/12/09 11:26:12;;;;;;;;;;;7.50;99.90;;;;;;5055874;28;19978;-85
2023/12/09 11:28:38;;;;;;;;;;;7.60;99.90;;;;;;5050023;28;19925;-88
2023/12/09 11:31:03;;;;;;;;;;;7.20;99.90;;;;;;5040630;28;19928;-88
2023/12/09 11:33:29;;;;;;;;;;;7.60;99.90;;;;;;5064215;28;20352;-88
2023/12/09 11:35:55;;;;;;;;;;;7.60;99.90;;;;;;5049898;28;19960;-86
2023/12/09 11:38:21;;;;;;;;;;;7.60;99.90;;;;;;5047732;28;19935;-88
2023/12/09 11:40:49;;;;;;;;;;;7.60;99.90;;;;;;5067109;28;20318;-88
2023/12/09 11:43:15;;;;;;;;;;;7.50;99.90;;;;;;5041835;28;19937;-89
2023/12/09 11:45:41;;;;;;;;;;;7.50;99.90;;;;;;5033769;28;19934;-84
2023/12/09 11:48:08;;;;;;;;;;;7.50;99.90;;;;;;5045033;28;20049;-85
2023/12/09 11:50:34;;;;;;;;;;;7.50;99.90;;;;;;5047943;28;20011;-88
2023/12/09 11:53:00;;;;;;;;;;;7.50;99.90;;;;;;5069282;28;20011;-87
2023/12/09 11:55:25;;;;;;;;;;;7.40;99.90;;;;;;5035973;28;20413;-85
2023/12/09 11:57:51;;;;;;;;;;;7.50;99.90;;;;;;5070297;28;20436;-89
2023/12/09 12:00:17;;;;;;;;;;;7.50;99.90;;;;;;5043936;28;19939;-86
2023/12/09 12:02:42;;;;;;;;;;;7.50;99.90;;;;;;5051326;28;19924;-89
2023/12/09 12:05:09;;;;;;;;;;;7.60;99.90;;;;;;5052570;28;19928;-89
2023/12/09 12:07:38;;;;;;;;;;;7.60;99.90;;;;;;5028422;28;19986;-89
2023/12/09 12:10:05;;;;;;;;;;;7.50;99.90;;;;;;5046210;28;20022;-86
2023/12/09 12:12:31;;;;;;;;;;;7.60;99.90;;;;;;5066924;28;19927;-92
2023/12/09 12:14:57;;;;;;;;;;;7.60;99.90;;;;;;5036297;28;20011;-88
2023/12/09 12:17:22;;;;;;;;;;;7.60;99.90;;;;;;5066461;28;19920;-88
2023/12/09 12:19:48;;;;;;;;;;;7.60;99.90;;;;;;5063338;28;19931;-88
2023/12/09 12:22:14;;;;;;;;;;;7.60;99.90;;;;;;5052672;28;19931;-85
2023/12/09 12:24:43;;;;;;;;;;;7.60;99.90;;;;;;5034949;28;20465;-87
2023/12/09 12:27:09;;;;;;;;;;;7.60;99.90;;;;;;5066364;28;19969;-85
2023/12/09 12:29:38;;;;;;;;;;;7.50;99.90;;;;;;5049001;28;20210;-89
2023/12/09 12:32:05;;;;;;;;;;;7.60;99.90;;;;;;5033435;28;19924;-85
2023/12/09 12:34:31;;;;;;;;;;;7.50;99.90;;;;;;5040529;28;19925;-85
2023/12/09 12:37:00;;;;;;;;;;;7.50;99.90;;;;;;5063861;28;19981;-86
2023/12/09 12:39:26;;;;;;;;;;;7.50;99.90;;;;;;5042910;28;19932;-85
2023/12/09 12:41:52;;;;;;;;;;;8.80;99.90;;;;;;5025735;28;20601;-88
2023/12/09 12:44:18;;;;;;;;;;;7.50;99.90;;;;;;5029767;28;19935;-85
2023/12/09 12:46:44;;;;;;;;;;;7.40;99.90;;;;;;5049062;28;20354;-82
2023/12/09 12:49:13;;;;;;;;;;;7.50;99.90;;;;;;5045112;28;19975;-86
2023/12/09 12:51:39;;;;;;;;;;;7.50;99.90;;;;;;5050913;28;19928;-87
2023/12/09 12:54:05;;;;;;;;;;;7.50;99.90;;;;;;5046028;28;20306;-82
2023/12/09 12:56:30;;;;;;;;;;;7.50;99.90;;;;;;5029223;28;19920;-83
2023/12/09 12:58:56;;;;;;;;;;;7.50;99.90;;;;;;5047250;28;19951;-85
2023/12/09 13:01:22;;;;;;;;;;;7.50;99.90;;;;;;5042890;28;20554;-87
2023/12/09 13:03:48;;;;;;;;;;;7.50;99.90;;;;;;5044867;28;19927;-85
2023/12/09 13:06:14;;;;;;;;;;;7.50;99.90;;;;;;5044223;28;19977;-85
2023/12/09 13:08:39;;;;;;;;;;;7.50;99.90;;;;;;5027361;28;19920;-83
2023/12/09 13:11:06;;;;;;;;;;;7.40;99.90;;;;;;5049176;28;19924;-85
2023/12/09 13:13:31;;;;;;;;;;;6.90;99.90;;;;;;5040553;28;19925;-84
2023/12/09 13:15:57;;;;;;;;;;;7.50;99.90;;;;;;5031156;28;20262;-87
2023/12/09 13:18:23;;;;;;;;;;;6.60;99.90;;;;;;5044880;28;20471;-85
2023/12/09 13:20:50;;;;;;;;;;;7.40;99.90;;;;;;5047149;28;20375;-85
2023/12/09 13:23:16;;;;;;;;;;;7.40;99.90;;;;;;5034587;28;20365;-86
2023/12/09 13:25:42;;;;;;;;;;;7.40;99.90;;;;;;5062722;28;19920;-85
2023/12/09 13:28:07;;;;;;;;;;;6.80;99.90;;;;;;5043794;28;19921;-86
2023/12/09 13:30:33;;;;;;;;;;;7.40;99.90;;;;;;5037366;28;19954;-85
2023/12/09 13:33:00;;;;;;;;;;;7.40;99.90;;;;;;5043458;28;20406;-85
2023/12/09 13:35:30;;;;;;;;;;;7.40;99.90;;;;;;5050083;28;19943;-87
2023/12/09 13:37:55;;;;;;;;;;;7.30;99.90;;;;;;5047301;28;20031;-84
2023/12/09 13:40:21;;;;;;;;;;;7.30;99.90;;;;;;5048786;28;20018;-86
2023/12/09 13:42:48;;;;;;;;;;;7.30;99.90;;;;;;5064267;28;20011;-84
2023/12/09 13:45:14;;;;;;;;;;;7.30;99.90;;;;;;5025239;28;20023;-84
2023/12/09 13:47:40;;;;;;;;;;;7.20;99.90;;;;;;5062935;28;19925;-84
2023/12/09 13:50:07;;;;;;;;;;;7.20;99.90;;;;;;5077802;28;19925;-85
2023/12/09 13:52:33;;;;;;;;;;;7.20;99.90;;;;;;5034193;28;19920;-85
2023/12/09 13:54:59;;;;;;;;;;;7.20;99.90;;;;;;5047686;28;19932;-85
2023/12/09 13:57:25;;;;;;;;;;;7.20;99.90;;;;;;5068812;28;19935;-83
2023/12/09 13:59:51;;;;;;;;;;;7.10;99.90;;;;;;5026637;28;19921;-85
2023/12/09 14:02:17;;;;;;;;;;;7.10;99.90;;;;;;5052206;28;20343;-85
2023/12/09 14:04:42;;;;;;;;;;;7.10;99.90;;;;;;5048870;28;19930;-84
2023/12/09 14:07:08;;;;;;;;;;;7.10;99.90;;;;;;5034632;28;19924;-87
2023/12/09 14:09:34;;;;;;;;;;;7.10;99.90;;;;;;5049086;28;19924;-89
2023/12/09 14:11:59;;;;;;;;;;;7.10;99.90;;;;;;5034566;28;19925;-82
2023/12/09 14:14:25;;;;;;;;;;;7.10;99.90;;;;;;5034782;28;19966;-84
2023/12/09 14:16:51;;;;;;;;;;;7.10;99.90;;;;;;5031898;28;19971;-84
2023/12/09 14:19:17;;;;;;;;;;;7.00;99.90;;;;;;5049926;28;19920;-86
2023/12/09 14:21:42;;;;;;;;;;;7.10;99.90;;;;;;5048479;28;19925;-87
2023/12/09 14:24:08;;;;;;;;;;;7.00;99.90;;;;;;5031564;28;19931;-85